Data for 04/25/2007

Time Sea-Level Adjusted Pressure Absolute Pressure Temperature Relative Humidity Dew Point   
(mb) (inHg) (mb) (inHg) (C) (F) (%) (C) (F)
00:05 1021 30.15 850 25.1 10.6 51.1 52 1.1 34
00:10 1021 30.15 850 25.1 10.4 50.6 52 1 33.8
00:15 1021 30.15 850 25.1 10.3 50.6 51 0.7 33.3
00:20 1021 30.15 850 25.1 10.5 50.8 50 0.6 33
00:25 1021 30.15 850 25.1 10.6 51 50 0.5 33
00:30 1021 30.15 850 25.1 10.6 51.1 49 0.5 32.8
00:35 1021 30.15 850 25.1 10.5 50.8 50 0.5 32.9
00:40 1021 30.15 850 25.1 10.2 50.3 51 0.5 32.9
00:45 1021 30.15 850 25.1 10 50 52 0.7 33.3
00:50 1021 30.15 850 25.1 9.8 49.7 53 0.6 33.2
00:55 1021 30.15 850 25.1 9.8 49.7 54 1.1 34
01:00 1021 30.15 850 25.1 9.2 48.6 58 1.5 34.8
01:05 1021 30.15 850 25.1 8.1 46.6 63 1.5 34.6
01:10 1021 30.15 850 25.1 7.7 45.8 63 1.1 33.9
01:15 1021 30.15 850 25.1 7.9 46.3 61 0.9 33.7
01:20 1021 30.15 850 25.1 7.9 46.2 62 1 33.8
01:25 1021 30.15 850 25.1 7.7 45.9 62 1 33.8
01:30 1021 30.15 850 25.1 7.6 45.7 64 1.2 34.2
01:35 1021 30.15 850 25.1 7.5 45.4 64 1.1 34
01:40 1021 30.15 850 25.1 7.5 45.5 63 1 33.8
01:45 1021 30.15 850 25.1 7.4 45.2 66 1.3 34.4
01:50 1021 30.15 850 25.1 7.2 44.9 65 1.2 34.1
01:55 1021 30.15 850 25.1 6.9 44.5 66 1.1 33.9
02:00 1021 30.15 850 25.1 7 44.5 65 0.9 33.6
02:05 1021 30.15 850 25.1 7.2 44.9 64 0.8 33.4
02:10 1021 30.15 850 25.1 7.2 44.9 64 0.8 33.5
02:15 1021 30.15 850 25.1 7 44.6 64 0.8 33.4
02:20 1021 30.15 850 25.1 6.8 44.3 65 0.6 33.2
02:25 1021 30.15 850 25.1 6.8 44.2 65 0.7 33.2
02:30 1021 30.15 850 25.1 6.5 43.6 66 0.6 33.1
02:35 1021 30.15 850 25.1 6.3 43.4 66 0.5 33
02:40 1021 30.15 850 25.1 6.3 43.3 66 0.4 32.8
02:45 1021 30.15 850 25.1 6.1 43 67 0.5 32.9
02:50 1021 30.15 850 25.1 5.7 42.2 70 0.6 33
02:55 1021 30.15 850 25.1 5.4 41.7 70 0.4 32.7
03:00 1021 30.15 850 25.1 5.4 41.7 70 0.4 32.7
03:05 1021 30.15 850 25.1 5.4 41.8 69 0.3 32.5
03:10 1021 30.15 850 25.1 5.4 41.8 69 0.1 32.2
03:15 1021 30.15 850 25.1 5.7 42.3 66 -0.1 31.9
03:20 1021 30.15 850 25.1 5.8 42.4 67 0.1 32.1
03:25 1021 30.15 850 25.1 5.8 42.4 66 0 32.1
03:30 1021 30.15 850 25.1 5.8 42.5 66 -0.1 31.9
03:35 1021 30.15 850 25.1 5.9 42.6 66 0.1 32.1
03:40 1021 30.15 850 25.1 5.8 42.4 67 0.1 32.2
03:45 1021 30.15 850 25.1 5.5 41.9 68 0 32
03:50 1021 30.15 850 25.1 5.3 41.6 69 0 32.1
03:55 1021 30.15 850 25.1 5.2 41.4 69 0 32
04:00 1021 30.15 850 25.1 5.1 41.1 70 -0 32
04:05 1021 30.15 850 25.1 5 40.9 71 0.1 32.1
04:10 1021 30.15 850 25.1 4.7 40.5 72 0 32.1
04:15 1021 30.15 850 25.1 4.6 40.3 72 -0.1 31.9
04:20 1021 30.15 850 25.1 4.5 40.1 72 -0.1 31.8
04:25 1021 30.15 850 25.1 4.5 40.1 72 -0.2 31.7
04:30 1021 30.15 850 25.1 4.7 40.4 70 -0.3 31.4
04:35 1021 30.15 850 25.1 4.7 40.5 70 -0.3 31.5
04:40 1021 30.15 850 25.1 4.6 40.3 71 -0.2 31.6
04:45 1021 30.15 850 25.1 4.5 40.2 71 -0.3 31.4
04:50 1021 30.15 850 25.1 4.5 40 71 -0.4 31.3
04:55 1021 30.15 850 25.1 4.3 39.8 71 -0.5 31
05:00 1021 30.15 850 25.1 4.4 39.8 71 -0.5 31.1
05:05 1021 30.15 850 25.1 4.5 40 70 -0.5 31.1
05:10 1021 30.15 850 25.1 4.5 40 70 -0.5 31
05:15 1021 30.15 850 25.1 4.4 40 70 -0.5 31.1
05:20 1021 30.15 850 25.1 4.3 39.7 71 -0.6 31
05:25 1021 30.15 850 25.1 4 39.2 72 -0.6 31
05:30 1021 30.15 850 25.1 3.9 38.9 72 -0.7 30.8
05:35 1021 30.15 850 25.1 4 39.1 71 -0.7 30.7
05:40 1021 30.15 850 25.1 4 39.1 72 -0.7 30.7
05:45 1021 30.15 850 25.1 3.6 38.5 74 -0.5 31
05:50 1021 30.15 850 25.1 3.5 38.2 74 -0.7 30.7
05:55 1021 30.15 850 25.1 3.6 38.5 73 -0.7 30.8
06:00 1021 30.15 850 25.1 3.6 38.5 73 -0.7 30.7
06:05 1021 30.15 850 25.1 3.6 38.5 73 -0.7 30.7
06:10 1021 30.15 850 25.1 3.7 38.6 73 -0.7 30.7
06:15 1021 30.15 850 25.1 3.8 38.8 72 -0.7 30.7
06:20 1021 30.15 850 25.1 4.1 39.4 70 -0.8 30.6
06:25 1021 30.15 850 25.1 4.4 39.9 69 -0.7 30.7
06:30 1021 30.15 850 25.1 4.5 40.2 69 -0.6 30.9
06:35 1021 30.15 850 25.1 4.5 40 69 -0.7 30.7
06:40 1021 30.15 850 25.1 4.7 40.5 68 -0.7 30.7
06:45 1021 30.15 850 25.1 4.8 40.6 68 -0.6 30.9
06:50 1021 30.15 850 25.1 4.5 40.1 69 -0.6 30.9
06:55 1021 30.15 850 25.1 4.1 39.4 71 -0.7 30.7
07:00 1021 30.15 850 25.1 4 39.2 71 -0.8 30.6
07:05 1021 30.15 850 25.1 4.1 39.5 71 -0.7 30.7
07:10 1021 30.15 850 25.1 4.1 39.4 71 -0.7 30.7
07:15 1021 30.15 850 25.1 4.4 39.9 69 -0.7 30.7
07:20 1021 30.15 850 25.1 4.7 40.4 69 -0.5 31
07:25 1021 30.15 850 25.1 4.9 40.9 68 -0.4 31.2
07:30 1021 30.15 850 25.1 5.1 41.2 67 -0.4 31.2
07:35 1021 30.15 850 25.1 5.2 41.3 67 -0.4 31.4
07:40 1021 30.15 850 25.1 5.4 41.7 66 -0.4 31.2
07:45 1021 30.15 850 25.1 5.6 42 65 -0.4 31.3
07:50 1021 30.15 850 25.1 5.7 42.3 65 -0.3 31.5
07:55 1021 30.15 850 25.1 6.2 43.2 64 -0.1 31.8
08:00 1021 30.15 850 25.1 6.7 44 62 -0 32
08:05 1021 30.15 850 25.1 7.1 44.7 61 -0 31.9
08:10 1021 30.15 850 25.1 7.2 44.9 60 0 32.1
08:15 1021 30.15 850 25.1 7.6 45.7 58 0 32
08:20 1021 30.15 850 25.1 7.9 46.3 57 0 32.1
08:25 1021 30.15 850 25.1 8.3 46.9 57 0.2 32.4
08:30 1021 30.15 850 25.1 8.6 47.4 57 0.4 32.8
08:35 1021 30.15 850 25.1 9.2 48.5 55 0.7 33.2
08:40 1021 30.15 850 25.1 9.1 48.3 58 1.3 34.3
08:45 1021 30.15 850 25.1 9.1 48.3 56 0.7 33.2
08:50 1021 30.15 850 25.1 9.5 49.1 52 0.2 32.4
08:55 1021 30.15 850 25.1 9.9 49.9 49 -0.2 31.6
09:00 1021 30.15 850 25.1 10.8 51.4 48 0.1 32.2
09:05 1021 30.15 850 25.1 11.2 52.2 46 0.2 32.4
09:10 1021 30.15 850 25.1 11.2 52.2 48 0.6 33.1
09:15 1021 30.15 850 25.1 11.5 52.7 46 0.4 32.7
09:20 1021 30.15 850 25.1 12.3 54.1 44 0.4 32.8
09:25 1021 30.15 850 25.1 12.4 54.3 45 0.8 33.4
09:30 1021 30.15 850 25.1 12.7 54.8 43 0.6 33
09:35 1021 30.15 850 25.1 12.2 54 45 0.6 33.1
09:40 1021 30.15 850 25.1 12.1 53.7 42 -0.3 31.4
09:45 1020 30.12 850 25.1 13.1 55.6 40 -0.1 31.8
09:50 1020 30.12 850 25.1 13.7 56.7 39 0.1 32.2
09:55 1020 30.12 849 25.07 13.7 56.7 40 0.3 32.6
10:00 1020 30.12 849 25.07 14.1 57.4 37 -0.3 31.5
10:05 1020 30.12 849 25.07 14.9 58.7 35 -0.3 31.5
10:10 1020 30.12 849 25.07 14.7 58.5 34 -0.7 30.7
10:15 1020 30.12 849 25.07 14.6 58.2 34 -1 30.2
10:20 1020 30.12 849 25.07 14.6 58.2 32 -2 28.4
10:25 1020 30.12 849 25.07 15.4 59.7 32 -1.1 30.1
10:30 1020 30.12 849 25.07 15.7 60.2 32 -0.9 30.3
10:35 1020 30.12 849 25.07 15.5 60 32 -1 30.3
10:40 1020 30.12 849 25.07 15.6 60.1 31 -1.1 30
10:45 1020 30.12 849 25.07 15.4 59.6 33 -0.8 30.5
10:50 1020 30.12 849 25.07 15.5 59.9 32 -1.2 29.9
10:55 1020 30.12 849 25.07 16 60.8 31 -1 30.2
11:00 1020 30.12 849 25.07 16.4 61.6 31 -0.5 31
11:05 1019 30.09 849 25.07 16.6 61.9 34 0.7 33.3
11:10 1019 30.09 849 25.07 16.3 61.3 31 -0.6 30.9
11:15 1019 30.09 849 25.07 16.3 61.3 32 -0.1 31.8
11:20 1019 30.09 848 25.04 16 60.9 31 -0.9 30.5
11:25 1019 30.09 848 25.04 15.7 60.2 31 -1.3 29.7
11:30 1019 30.09 848 25.04 15.7 60.3 32 -0.9 30.3
11:35 1019 30.09 848 25.04 15.7 60.3 32 -1 30.2
11:40 1019 30.09 848 25.04 15.5 59.9 32 -1.1 30.1
11:45 1019 30.09 848 25.04 16.5 61.6 29 -1.4 29.6
11:50 1019 30.09 848 25.04 16.6 61.8 29 -1.5 29.3
11:55 1019 30.09 848 25.04 16.6 61.9 29 -1.2 29.9
12:00 1018 30.06 848 25.04 17 62.5 28 -1.5 29.2
12:05 1018 30.06 848 25.04 16.8 62.3 28 -1.6 29.1
12:10 1018 30.06 848 25.04 17.1 62.8 28 -1.4 29.5
12:15 1018 30.06 848 25.04 17.3 63.1 27 -1.7 28.9
12:20 1018 30.06 848 25.04 17.4 63.4 27 -1.4 29.4
12:25 1018 30.06 847 25.01 16.6 61.9 28 -1.7 29
12:30 1018 30.06 847 25.01 17.2 62.9 26 -2.5 27.5
12:35 1018 30.06 847 25.01 16.6 61.8 28 -2.1 28.2
12:40 1018 30.06 847 25.01 16.7 62 26 -2.6 27.3
12:45 1018 30.06 847 25.01 17.2 63 25 -3 26.5
12:50 1018 30.06 847 25.01 16.6 61.8 26 -2.7 27.2
12:55 1018 30.06 847 25.01 17.2 63 25 -2.9 26.7
13:00 1018 30.06 847 25.01 17.6 63.6 26 -2 28.4
13:05 1018 30.06 847 25.01 17.1 62.9 26 -2.5 27.5
13:10 1017 30.03 847 25.01 17.3 63.1 26 -2 28.3
13:15 1017 30.03 847 25.01 16.6 61.8 27 -2.5 27.5
13:20 1017 30.03 846 24.98 17.7 63.9 24 -2.9 26.8
13:25 1017 30.03 846 24.98 17.2 62.9 24 -3.2 26.2
13:30 1017 30.03 846 24.98 16.8 62.2 24 -3.6 25.5
13:35 1017 30.03 846 24.98 17.5 63.5 25 -2.4 27.7
13:40 1017 30.03 846 24.98 18.5 65.2 24 -2.4 27.7
13:45 1017 30.03 846 24.98 18.4 65 25 -1.9 28.5
13:50 1017 30.03 846 24.98 18.1 64.6 24 -2.9 26.9
13:55 1017 30.03 846 24.98 17.2 62.9 25 -3.1 26.4
14:00 1017 30.03 846 24.98 16.7 62 26 -3 26.6
14:05 1017 30.03 846 24.98 17.1 62.7 24 -3.4 25.8
14:10 1017 30.03 846 24.98 18.4 65.2 24 -2.6 27.3
14:15 1017 30.03 846 24.98 18.5 65.4 23 -3 26.7
14:20 1016 30 846 24.98 18.4 65.2 22 -3.5 25.7
14:25 1016 30 846 24.98 17.4 63.2 24 -3.1 26.4
14:30 1016 30 846 24.98 17.9 64.3 23 -3.3 26
14:35 1016 30 845 24.95 18.2 64.7 23 -3.2 26.2
14:40 1016 30 845 24.95 19.1 66.3 22 -3.2 26.3
14:45 1016 30 845 24.95 19.6 67.3 21 -3.1 26.4
14:50 1016 30 845 24.95 19.6 67.3 22 -2.8 26.9
14:55 1016 30 845 24.95 19.3 66.8 21 -3.1 26.4
15:00 1016 30 845 24.95 19.3 66.7 21 -3.6 25.6
15:05 1016 30 845 24.95 17.9 64.1 23 -3.6 25.6
15:10 1016 30 845 24.95 17.5 63.5 23 -3.5 25.7
15:15 1016 30 845 24.95 18.1 64.5 23 -3.6 25.6
15:20 1015 29.97 845 24.95 19.5 67 20 -3.8 25.2
15:25 1015 29.97 845 24.95 19.6 67.2 21 -3.2 26.3
15:30 1015 29.97 845 24.95 19.8 67.6 21 -2.9 26.8
15:35 1015 29.97 844 24.92 19.3 66.8 22 -2.7 27.1
15:40 1015 29.97 844 24.92 19.6 67.2 21 -3.3 26
15:45 1015 29.97 844 24.92 19.5 67.1 19 -4.3 24.2
15:50 1015 29.97 844 24.92 19.7 67.5 20 -3.8 25.2
15:55 1015 29.97 844 24.92 19.7 67.5 20 -3.8 25.2
16:00 1015 29.97 844 24.92 19.4 67 20 -4.2 24.4
16:05 1015 29.97 844 24.92 19.2 66.6 21 -3.7 25.4
16:10 1015 29.97 844 24.92 19.7 67.5 20 -3.8 25.2
16:15 1015 29.97 844 24.92 20.1 68.1 19 -3.8 25.2
16:20 1015 29.97 844 24.92 18.7 65.7 23 -2.8 26.9
16:25 1015 29.97 844 24.92 18.8 65.8 20 -4.2 24.4
16:30 1015 29.97 844 24.92 18.3 65 22 -3.8 25.2
16:35 1014 29.94 844 24.92 17.6 63.6 23 -3.8 25.2
16:40 1014 29.94 844 24.92 17.1 62.8 23 -3.9 24.9
16:45 1014 29.94 844 24.92 17 62.6 24 -3.8 25.1
16:50 1014 29.94 844 24.92 17.3 63.1 23 -3.8 25.2
16:55 1014 29.94 844 24.92 17.2 63 24 -3.7 25.3
17:00 1015 29.97 844 24.92 17.7 63.8 23 -3.4 25.9
17:05 1015 29.97 844 24.92 17.4 63.4 28 -1.2 29.8
17:10 1015 29.97 844 24.92 16.5 61.8 29 -1.6 29.1
17:15 1015 29.97 844 24.92 16.2 61.2 31 -0.8 30.5
17:20 1015 29.97 844 24.92 16.2 61.1 30 -1.3 29.6
17:25 1015 29.97 844 24.92 16.7 62.1 29 -1.2 29.8
17:30 1015 29.97 844 24.92 17.5 63.6 29 -0.8 30.6
17:35 1015 29.97 844 24.92 17.8 64 29 -0.6 30.9
17:40 1015 29.97 844 24.92 17.8 64.1 28 -0.9 30.3
17:45 1015 29.97 844 24.92 17.4 63.3 28 -1.4 29.5
17:50 1015 29.97 844 24.92 17 62.6 29 -1.2 29.8
17:55 1015 29.97 844 24.92 16.8 62.2 29 -1.5 29.4
18:00 1014 29.94 844 24.92 16.7 62 28 -1.9 28.6
18:05 1014 29.94 844 24.92 16.4 61.5 29 -1.5 29.3
18:10 1015 29.97 844 24.92 15.7 60.3 31 -1.4 29.5
18:15 1015 29.97 844 24.92 15.4 59.7 33 -0.7 30.7
18:20 1015 29.97 844 24.92 15.5 59.9 33 -0.5 31.1
18:25 1014 29.94 844 24.92 15.6 60 32 -1 30.2
18:30 1014 29.94 844 24.92 16 60.7 31 -1.1 30.1
18:35 1014 29.94 844 24.92 16.3 61.3 30 -1.2 29.8
18:40 1014 29.94 843 24.89 16.2 61.1 30 -1.3 29.7
18:45 1014 29.94 843 24.89 16.3 61.3 30 -1.4 29.6
18:50 1014 29.94 843 24.89 16.4 61.5 30 -1.3 29.6
18:55 1014 29.94 843 24.89 16.5 61.7 29 -1.4 29.4
19:00 1014 29.94 843 24.89 16.4 61.5 29 -1.4 29.5
19:05 1014 29.94 843 24.89 16 60.9 30 -1.3 29.6
19:10 1014 29.94 843 24.89 15.8 60.5 31 -1.1 30
19:15 1014 29.94 843 24.89 15.5 59.9 33 -0.4 31.2
19:20 1015 29.97 844 24.92 14.8 58.6 43 2.4 36.3
19:25 1015 29.97 844 24.92 13.6 56.5 45 2 35.5
19:30 1015 29.97 844 24.92 12.6 54.6 54 3.5 38.3
19:35 1015 29.97 844 24.92 12.3 54.1 51 2.6 36.7
19:40 1015 29.97 844 24.92 12 53.5 57 3.8 38.9
19:45 1015 29.97 845 24.95 10.6 51.1 63 3.8 38.9
19:50 1016 30 845 24.95 9.8 49.6 66 3.7 38.7
19:55 1016 30 845 24.95 9.4 48.8 69 4.1 39.3
20:00 1016 30 845 24.95 9 48.2 71 4 39.2
20:05 1017 30.03 846 24.98 8.8 47.9 71 3.9 39.1
20:10 1017 30.03 846 24.98 8.9 47.9 70 3.8 38.8
20:15 1017 30.03 846 24.98 8.9 48 70 3.7 38.7
20:20 1017 30.03 846 24.98 9 48.2 71 4 39.2
20:25 1017 30.03 846 24.98 8.9 47.9 75 4.8 40.6
20:30 1017 30.03 847 25.01 8.7 47.6 79 5.2 41.3
20:35 1018 30.06 847 25.01 8.5 47.3 81 5.5 41.9
20:40 1018 30.06 847 25.01 8.2 46.8 85 5.8 42.4
20:45 1018 30.06 847 25.01 8 46.4 87 6 42.8
20:50 1018 30.06 847 25.01 7.9 46.1 89 6.2 43.1
20:55 1018 30.06 847 25.01 7.7 45.9 90 6.1 43.1
21:00 1018 30.06 847 25.01 7.5 45.5 91 6.1 42.9
21:05 1018 30.06 847 25.01 7.5 45.6 92 6.3 43.3
21:10 1018 30.06 847 25.01 7.5 45.5 90 6 42.7
21:15 1018 30.06 847 25.01 7.3 45.1 87 5.3 41.6
21:20 1018 30.06 847 25.01 7.1 44.8 83 4.4 39.9
21:25 1018 30.06 847 25.01 7 44.7 85 4.8 40.6
21:30 1018 30.06 847 25.01 6.7 44.1 88 4.9 40.7
21:35 1018 30.06 848 25.04 6.6 43.9 88 4.7 40.5
21:40 1018 30.06 848 25.04 6.6 43.8 87 4.5 40.1
21:45 1018 30.06 848 25.04 6.5 43.8 87 4.5 40.1
21:50 1018 30.06 848 25.04 6.6 43.8 87 4.6 40.3
21:55 1018 30.06 848 25.04 6.3 43.4 87 4.3 39.8
22:00 1018 30.06 848 25.04 5.8 42.5 90 4.4 39.9
22:05 1018 30.06 848 25.04 5.9 42.6 91 4.6 40.2
22:10 1018 30.06 848 25.04 5.7 42.2 88 3.9 39
22:15 1018 30.06 848 25.04 5.4 41.8 89 3.7 38.7
22:20 1018 30.06 847 25.01 5.1 41.2 90 3.5 38.3
22:25 1018 30.06 847 25.01 4.8 40.7 93 3.8 38.8
22:30 1018 30.06 847 25.01 4.7 40.5 92 3.5 38.2
22:35 1018 30.06 847 25.01 4.6 40.3 91 3.2 37.7
22:40 1018 30.06 847 25.01 4.4 39.9 92 3.2 37.8
22:45 1017 30.03 847 25.01 4.2 39.6 91 2.9 37.2
22:50 1017 30.03 846 24.98 4.1 39.4 90 2.7 36.8
22:55 1017 30.03 846 24.98 4 39.1 91 2.7 36.8
23:00 1017 30.03 846 24.98 4 39.2 92 2.8 37.1
23:05 1017 30.03 846 24.98 4.2 39.6 90 2.8 37.1
23:10 1017 30.03 846 24.98 4.3 39.7 90 2.9 37.2
23:15 1017 30.03 846 24.98 4.4 40 90 2.9 37.3
23:20 1017 30.03 846 24.98 4.5 40 90 3 37.4
23:25 1017 30.03 846 24.98 4.6 40.2 90 3.1 37.7
23:30 1017 30.03 846 24.98 4.8 40.6 89 3.2 37.7
23:35 1017 30.03 846 24.98 4.8 40.6 91 3.4 38
23:40 1017 30.03 846 24.98 4.7 40.5 90 3.2 37.7
23:45 1017 30.03 846 24.98 4.6 40.2 89 2.9 37.3
23:50 1017 30.03 846 24.98 4.6 40.3 88 2.8 37
23:55 1017 30.03 846 24.98 4.6 40.3 89 3 37.4
24:00 1017 30.03 846 24.98 4.6 40.3 88 2.8 37